Time;durP1;ratioP1;P1;durP2;ratioP2;P2;SDS_P1;SDS_P2;PMS_P1;PMS_P2;Temp;Humidity;BMP_temperature;BMP_pressure;BME280_temperature;BME280_humidity;BME280_pressure;Samples;Min_cycle;Max_cycle;Signal;HPM_P1;HPM_P2
2022/04/29 00:02:58;;;;;;;80.13;31.27;;;;;;;;;;6243599;28;20499;-79
2022/04/29 00:05:58;;;;;;;71.20;34.55;;;;;;;;;;6241508;28;20811;-79
2022/04/29 00:08:58;;;;;;;74.80;33.25;;;;;;;;;;6225077;28;20025;-79
2022/04/29 00:11:59;;;;;;;63.87;30.17;;;;;;;;;;6243333;28;20029;-79
2022/04/29 00:15:00;;;;;;;64.07;29.58;;;;;;;;;;6240714;28;20273;-79
2022/04/29 00:18:00;;;;;;;51.22;24.65;;;;;;;;;;6237962;28;20021;-79
2022/04/29 00:21:00;;;;;;;61.30;24.85;;;;;;;;;;6242965;28;20053;-79
2022/04/29 00:24:00;;;;;;;49.17;22.88;;;;;;;;;;6242881;28;20025;-79
2022/04/29 00:27:01;;;;;;;39.03;20.10;;;;;;;;;;6242916;28;20033;-79
2022/04/29 00:30:01;;;;;;;37.20;18.35;;;;;;;;;;6243053;28;20435;-80
2022/04/29 00:33:02;;;;;;;39.47;18.13;;;;;;;;;;6243004;28;20166;-79
2022/04/29 00:36:02;;;;;;;36.35;16.60;;;;;;;;;;6224606;28;20021;-80
2022/04/29 00:39:03;;;;;;;32.55;15.20;;;;;;;;;;6225645;28;20116;-79
2022/04/29 00:42:14;;;;;;;34.20;16.38;;;;;;;;;;6248073;28;20030;-79
2022/04/29 00:45:16;;;;;;;31.35;15.18;;;;;;;;;;6247827;28;20032;-80
2022/04/29 00:48:16;;;;;;;;;;;;;;;;;;6230241;28;20519;-80
2022/04/29 00:51:16;;;;;;;50.85;18.98;;;;;;;;;;6229760;28;19909;-80
2022/04/29 00:54:21;;;;;;;47.58;20.50;;;;;;;;;;6247952;28;20017;-80
2022/04/29 00:57:26;;;;;;;37.80;17.83;;;;;;;;;;6247208;28;20053;-79
2022/04/29 01:00:27;;;;;;;49.20;23.48;;;;;;;;;;6246883;28;20542;-79
2022/04/29 01:03:28;;;;;;;57.42;25.48;;;;;;;;;;6229624;28;20014;-79
2022/04/29 01:06:28;;;;;;;51.53;22.25;;;;;;;;;;6245380;28;20120;-79
2022/04/29 01:09:28;;;;;;;44.33;21.65;;;;;;;;;;6246901;28;20069;-79
2022/04/29 01:12:31;;;;;;;49.58;23.30;;;;;;;;;;6247217;28;20022;-79
2022/04/29 01:15:32;;;;;;;48.03;24.25;;;;;;;;;;6241702;28;20060;-79
2022/04/29 01:18:32;;;;;;;49.60;23.83;;;;;;;;;;6246118;28;20029;-79
2022/04/29 01:21:33;;;;;;;52.80;23.10;;;;;;;;;;6229744;28;20083;-80
2022/04/29 01:24:33;;;;;;;52.58;24.30;;;;;;;;;;6246792;28;20017;-79
2022/04/29 01:27:33;;;;;;;43.78;20.38;;;;;;;;;;6228766;28;20029;-79
2022/04/29 01:30:33;;;;;;;52.10;23.40;;;;;;;;;;6246704;28;20026;-79
2022/04/29 01:33:34;;;;;;;50.45;23.05;;;;;;;;;;6228975;28;20032;-80
2022/04/29 01:36:34;;;;;;;49.83;19.83;;;;;;;;;;6228559;28;20469;-80
2022/04/29 01:39:34;;;;;;;48.70;22.70;;;;;;;;;;6240478;28;20080;-80
2022/04/29 01:42:35;;;;;;;40.90;19.57;;;;;;;;;;6220659;28;20072;-80
2022/04/29 01:45:35;;;;;;;50.70;20.08;;;;;;;;;;6220443;28;20268;-80
2022/04/29 01:48:38;;;;;;;38.30;19.15;;;;;;;;;;6220434;28;20026;-80
2022/04/29 01:51:38;;;;;;;44.10;21.23;;;;;;;;;;6221290;28;20022;-80
2022/04/29 01:54:38;;;;;;;38.40;18.08;;;;;;;;;;6233729;28;20388;-80
2022/04/29 01:57:38;;;;;;;39.35;18.17;;;;;;;;;;6246155;28;20322;-80
2022/04/29 02:00:39;;;;;;;38.45;17.92;;;;;;;;;;6246213;28;20025;-80
2022/04/29 02:03:39;;;;;;;32.03;14.63;;;;;;;;;;6246261;28;20075;-79
2022/04/29 02:06:39;;;;;;;28.23;14.93;;;;;;;;;;6228332;28;20021;-80
2022/04/29 02:09:40;;;;;;;28.47;15.00;;;;;;;;;;6244641;28;20052;-80
2022/04/29 02:12:40;;;;;;;29.48;13.82;;;;;;;;;;6228478;28;20260;-80
2022/04/29 02:15:40;;;;;;;23.85;11.65;;;;;;;;;;6227964;28;20005;-80
2022/04/29 02:18:40;;;;;;;30.90;13.43;;;;;;;;;;6245751;28;20519;-80
2022/04/29 02:21:41;;;;;;;26.60;13.00;;;;;;;;;;6245941;28;20381;-80
2022/04/29 02:24:42;;;;;;;36.78;15.45;;;;;;;;;;6245775;28;20438;-79
2022/04/29 02:27:42;;;;;;;28.80;13.20;;;;;;;;;;6227264;28;20076;-79
2022/04/29 02:30:43;;;;;;;30.77;14.43;;;;;;;;;;6244034;28;20021;-80
2022/04/29 02:33:43;;;;;;;32.57;14.30;;;;;;;;;;6245668;28;20018;-80
2022/04/29 02:36:43;;;;;;;30.65;16.30;;;;;;;;;;6245648;28;20407;-79
2022/04/29 02:39:43;;;;;;;31.55;13.65;;;;;;;;;;6245378;28;20030;-80
2022/04/29 02:42:44;;;;;;;29.13;11.77;;;;;;;;;;6245252;28;20025;-79
2022/04/29 02:45:46;;;;;;;27.30;12.20;;;;;;;;;;6245447;28;20305;-79
2022/04/29 02:48:48;;;;;;;36.60;13.75;;;;;;;;;;6245766;28;20762;-80
2022/04/29 02:51:48;;;;;;;35.22;15.68;;;;;;;;;;6246402;28;20053;-79
2022/04/29 02:54:49;;;;;;;35.42;16.08;;;;;;;;;;6243840;28;20028;-80
2022/04/29 02:57:49;;;;;;;33.13;13.43;;;;;;;;;;6243138;28;20127;-80
2022/04/29 03:00:49;;;;;;;42.80;15.20;;;;;;;;;;6226989;28;20419;-80
2022/04/29 03:03:50;;;;;;;28.45;13.63;;;;;;;;;;6244293;28;20608;-80
2022/04/29 03:06:50;;;;;;;45.38;16.95;;;;;;;;;;6226469;28;20151;-79
2022/04/29 03:09:50;;;;;;;32.10;15.82;;;;;;;;;;6218362;28;20045;-79
2022/04/29 03:12:50;;;;;;;32.40;14.30;;;;;;;;;;6220212;28;20446;-79
2022/04/29 03:15:51;;;;;;;30.13;13.80;;;;;;;;;;6219845;28;20115;-79
2022/04/29 03:18:51;;;;;;;28.57;12.43;;;;;;;;;;6219619;28;20018;-80
2022/04/29 03:21:51;;;;;;;30.02;12.13;;;;;;;;;;6219450;28;20272;-80
2022/04/29 03:24:52;;;;;;;28.65;12.50;;;;;;;;;;6218638;28;20112;-80
2022/04/29 03:27:52;;;;;;;37.88;14.32;;;;;;;;;;6218861;28;20101;-80
2022/04/29 03:30:52;;;;;;;32.33;14.23;;;;;;;;;;6219753;28;20021;-80
2022/04/29 03:33:52;;;;;;;26.17;13.23;;;;;;;;;;6218375;28;20357;-79
2022/04/29 03:36:53;;;;;;;31.73;14.65;;;;;;;;;;6220024;28;20109;-80
2022/04/29 03:39:53;;;;;;;36.30;14.65;;;;;;;;;;6219146;28;20468;-80
2022/04/29 03:42:54;;;;;;;40.38;14.68;;;;;;;;;;6217968;28;20022;-80
2022/04/29 03:45:54;;;;;;;32.22;16.60;;;;;;;;;;6219011;28;20025;-80
2022/04/29 03:52:13;;;;;;;37.20;16.33;;;;;;;;;;6219202;28;20030;-79
2022/04/29 03:55:40;;;;;;;35.58;15.77;;;;;;;;;;6217637;28;20157;-79
2022/04/29 03:58:40;;;;;;;32.83;15.18;;;;;;;;;;6214991;28;20501;-79
2022/04/29 04:01:42;;;;;;;39.40;18.00;;;;;;;;;;6219260;28;20032;-79
2022/04/29 04:04:42;;;;;;;31.80;14.18;;;;;;;;;;6219316;28;20303;-79
2022/04/29 04:07:42;;;;;;;35.97;15.63;;;;;;;;;;6218942;28;20034;-79
2022/04/29 04:10:42;;;;;;;31.92;13.57;;;;;;;;;;6221118;28;20042;-80
2022/04/29 04:13:43;;;;;;;36.07;15.50;;;;;;;;;;6219153;28;20117;-79
2022/04/29 04:16:43;;;;;;;33.88;18.13;;;;;;;;;;6209779;28;20647;-79
2022/04/29 04:19:43;;;;;;;46.33;18.17;;;;;;;;;;6218168;28;20025;-79
2022/04/29 04:22:44;;;;;;;31.73;15.68;;;;;;;;;;6242319;28;20125;-79
2022/04/29 04:25:44;;;;;;;37.67;17.80;;;;;;;;;;6228358;28;20034;-79
2022/04/29 04:28:44;;;;;;;34.63;16.57;;;;;;;;;;6218714;28;20051;-79
2022/04/29 04:31:45;;;;;;;40.38;17.58;;;;;;;;;;6219134;28;20593;-79
2022/04/29 04:34:52;;;;;;;24.40;13.02;;;;;;;;;;6218541;28;20022;-79
2022/04/29 04:37:52;;;;;;;33.85;16.27;;;;;;;;;;6216995;28;20145;-79
2022/04/29 04:40:53;;;;;;;29.93;15.73;;;;;;;;;;6218868;28;20057;-79
2022/04/29 04:43:53;;;;;;;34.80;14.70;;;;;;;;;;6217438;28;20672;-79
2022/04/29 04:46:54;;;;;;;36.10;17.23;;;;;;;;;;6217730;28;20041;-79
2022/04/29 04:49:55;;;;;;;34.63;16.77;;;;;;;;;;6218488;28;20033;-80
2022/04/29 04:52:56;;;;;;;38.08;17.05;;;;;;;;;;6218469;28;20068;-79
2022/04/29 04:55:56;;;;;;;33.17;17.05;;;;;;;;;;6216640;28;20101;-79
2022/04/29 04:58:56;;;;;;;31.85;15.65;;;;;;;;;;6217250;28;20030;-79
2022/04/29 05:01:57;;;;;;;37.88;19.20;;;;;;;;;;6218458;28;20037;-79
2022/04/29 05:04:57;;;;;;;37.58;17.70;;;;;;;;;;6218277;28;20030;-79
2022/04/29 05:07:58;;;;;;;35.83;19.08;;;;;;;;;;6214205;28;20036;-79
2022/04/29 05:10:58;;;;;;;33.60;17.23;;;;;;;;;;6224420;28;20540;-79
2022/04/29 05:13:58;;;;;;;29.43;17.00;;;;;;;;;;6240480;28;20544;-79
2022/04/29 05:16:59;;;;;;;41.58;20.33;;;;;;;;;;6218870;28;20648;-79
2022/04/29 05:19:59;;;;;;;39.08;19.63;;;;;;;;;;6239149;28;20029;-79
2022/04/29 05:22:59;;;;;;;39.07;21.03;;;;;;;;;;6207156;28;20025;-79
2022/04/29 05:25:59;;;;;;;35.35;16.98;;;;;;;;;;6224526;28;20256;-79
2022/04/29 05:28:59;;;;;;;39.30;21.37;;;;;;;;;;6238312;28;20369;-79
2022/04/29 05:32:01;;;;;;;39.17;21.23;;;;;;;;;;6234644;28;20263;-79
2022/04/29 05:35:03;;;;;;;45.33;22.83;;;;;;;;;;6243929;28;20677;-79
2022/04/29 05:38:03;;;;;;;;;;;;;;;;;;6235541;28;20009;-79
2022/04/29 05:44:22;;;;;;;41.58;22.10;;;;;;;;;;6246143;28;20401;-80
2022/04/29 05:47:22;;;;;;;41.45;21.70;;;;;;;;;;6245451;28;20029;-80
2022/04/29 05:50:23;;;;;;;35.37;20.73;;;;;;;;;;6228365;28;20013;-79
2022/04/29 05:53:23;;;;;;;42.92;23.05;;;;;;;;;;6228536;28;20601;-79
2022/04/29 05:56:24;;;;;;;49.33;22.33;;;;;;;;;;6243535;28;20477;-79
2022/04/29 05:59:25;;;;;;;49.58;24.88;;;;;;;;;;6220927;28;20041;-79
2022/04/29 06:02:26;;;;;;;48.33;24.55;;;;;;;;;;6226500;28;20091;-79
2022/04/29 06:05:26;;;;;;;45.65;25.98;;;;;;;;;;6224128;28;20075;-79
2022/04/29 06:08:26;;;;;;;49.17;27.42;;;;;;;;;;6244014;28;20009;-79
2022/04/29 06:11:27;;;;;;;60.17;27.00;;;;;;;;;;6244012;28;20413;-79
2022/04/29 06:14:27;;;;;;;62.70;27.08;;;;;;;;;;6226013;28;20264;-79
2022/04/29 06:17:27;;;;;;;57.90;29.13;;;;;;;;;;6231678;28;20026;-79
2022/04/29 06:20:29;;;;;;;42.13;22.33;;;;;;;;;;6233586;28;20040;-79
2022/04/29 06:23:30;;;;;;;44.58;22.50;;;;;;;;;;6229436;28;20022;-79
2022/04/29 06:26:30;;;;;;;40.90;22.88;;;;;;;;;;6234006;28;20017;-79
2022/04/29 06:29:30;;;;;;;37.85;20.38;;;;;;;;;;6226302;28;20022;-80
2022/04/29 06:32:30;;;;;;;43.42;22.83;;;;;;;;;;6244418;28;20410;-79
2022/04/29 06:35:31;;;;;;;55.10;23.63;;;;;;;;;;6222864;28;20021;-79
2022/04/29 06:38:31;;;;;;;43.03;20.97;;;;;;;;;;6237669;28;20288;-79
2022/04/29 06:41:31;;;;;;;42.60;21.23;;;;;;;;;;6233243;28;20394;-79
2022/04/29 06:44:32;;;;;;;33.40;18.00;;;;;;;;;;6210529;28;20296;-79
2022/04/29 06:47:32;;;;;;;43.60;22.93;;;;;;;;;;6234639;28;20473;-79
2022/04/29 06:50:32;;;;;;;39.70;20.93;;;;;;;;;;6228234;28;20653;-79
2022/04/29 06:53:32;;;;;;;30.00;15.90;;;;;;;;;;6221966;28;20842;-79
2022/04/29 06:56:32;;;;;;;27.85;14.82;;;;;;;;;;6225589;28;20284;-79
2022/04/29 06:59:33;;;;;;;29.48;12.98;;;;;;;;;;6244385;28;20100;-79
2022/04/29 07:02:33;;;;;;;25.43;13.10;;;;;;;;;;6244297;28;20060;-79
2022/04/29 07:05:36;;;;;;;20.63;11.30;;;;;;;;;;6226351;28;20064;-79
2022/04/29 07:08:36;;;;;;;20.23;10.38;;;;;;;;;;6225089;28;20100;-78
2022/04/29 07:11:36;;;;;;;20.53;11.20;;;;;;;;;;6242545;28;20417;-79
2022/04/29 07:14:36;;;;;;;19.10;9.90;;;;;;;;;;6223544;28;20442;-79
2022/04/29 07:17:37;;;;;;;19.33;10.67;;;;;;;;;;6238737;28;20028;-79
2022/04/29 07:20:37;;;;;;;26.70;12.03;;;;;;;;;;6241681;28;20060;-79
2022/04/29 07:23:37;;;;;;;23.43;11.37;;;;;;;;;;6236470;28;20021;-79
2022/04/29 07:26:39;;;;;;;21.20;10.60;;;;;;;;;;6236223;28;20025;-79
2022/04/29 07:29:40;;;;;;;18.05;9.52;;;;;;;;;;6234285;28;20009;-79
2022/04/29 07:32:40;;;;;;;19.17;9.27;;;;;;;;;;6239923;28;20755;-79
2022/04/29 07:42:18;;;;;;;19.27;8.43;;;;;;;;;;6236449;28;20040;-79
2022/04/29 07:45:18;;;;;;;16.23;7.77;;;;;;;;;;6222741;28;20068;-79
2022/04/29 07:48:19;;;;;;;14.80;6.63;;;;;;;;;;6223914;28;20018;-79
2022/04/29 07:51:19;;;;;;;10.83;6.37;;;;;;;;;;6240167;28;20400;-79
2022/04/29 07:54:19;;;;;;;14.27;7.90;;;;;;;;;;6243220;28;20053;-79
2022/04/29 07:57:20;;;;;;;13.43;6.97;;;;;;;;;;6242413;28;20056;-79
2022/04/29 08:00:20;;;;;;;14.70;8.43;;;;;;;;;;6241576;28;20029;-79
2022/04/29 08:03:21;;;;;;;11.20;6.00;;;;;;;;;;6241615;28;20341;-79
2022/04/29 08:06:21;;;;;;;10.53;6.03;;;;;;;;;;6239861;28;20163;-80
2022/04/29 08:09:22;;;;;;;8.23;4.87;;;;;;;;;;6224013;28;20091;-80
2022/04/29 08:12:22;;;;;;;8.90;3.77;;;;;;;;;;6243096;28;20104;-80
2022/04/29 08:15:22;;;;;;;10.67;4.63;;;;;;;;;;6244188;28;20010;-79
2022/04/29 08:18:23;;;;;;;9.30;4.60;;;;;;;;;;6244189;28;20025;-80
2022/04/29 08:21:23;;;;;;;7.83;4.30;;;;;;;;;;6219739;28;20514;-79
2022/04/29 08:24:23;;;;;;;5.97;4.03;;;;;;;;;;6241276;28;20009;-79
2022/04/29 08:27:24;;;;;;;9.77;4.17;;;;;;;;;;6231774;28;20022;-79
2022/04/29 08:30:24;;;;;;;8.60;3.63;;;;;;;;;;6225423;28;20064;-79
2022/04/29 08:33:26;;;;;;;6.87;4.47;;;;;;;;;;6228840;28;20048;-79
2022/04/29 08:36:26;;;;;;;7.15;3.50;;;;;;;;;;6214012;28;20347;-79
2022/04/29 08:39:26;;;;;;;6.93;4.00;;;;;;;;;;6227038;28;20056;-79
2022/04/29 08:42:28;;;;;;;7.13;3.77;;;;;;;;;;6229538;28;20021;-79
2022/04/29 08:45:28;;;;;;;6.60;3.65;;;;;;;;;;6202847;28;20029;-79
2022/04/29 08:48:29;;;;;;;8.48;3.65;;;;;;;;;;6223882;28;20041;-80
2022/04/29 08:51:29;;;;;;;7.10;4.03;;;;;;;;;;6222063;28;20018;-80
2022/04/29 09:01:09;;;;;;;8.02;3.15;;;;;;;;;;6243922;28;20041;-80
2022/04/29 09:04:09;;;;;;;6.88;2.85;;;;;;;;;;6248655;28;20381;-79
2022/04/29 09:07:09;;;;;;;9.43;3.20;;;;;;;;;;6247730;28;20025;-79
2022/04/29 09:10:10;;;;;;;6.23;3.00;;;;;;;;;;6247697;28;20037;-79
2022/04/29 09:13:11;;;;;;;8.77;4.53;;;;;;;;;;6247495;28;20448;-79
2022/04/29 09:16:12;;;;;;;5.30;2.28;;;;;;;;;;6233919;28;20014;-79
2022/04/29 09:19:28;;;;;;;6.95;3.25;;;;;;;;;;6246395;28;20531;-79
2022/04/29 09:22:31;;;;;;;8.52;3.38;;;;;;;;;;6240400;28;20021;-80
2022/04/29 09:25:36;;;;;;;6.28;3.20;;;;;;;;;;6248099;28;20108;-80
2022/04/29 09:28:36;;;;;;;5.38;2.95;;;;;;;;;;6246831;28;20104;-79
2022/04/29 09:31:54;;;;;;;6.57;3.53;;;;;;;;;;6229128;28;20001;-79
2022/04/29 09:34:54;;;;;;;5.03;2.67;;;;;;;;;;6226455;28;20018;-79
2022/04/29 09:41:22;;;;;;;5.78;3.53;;;;;;;;;;6214045;28;20558;-79
2022/04/29 09:44:29;;;;;;;9.50;2.95;;;;;;;;;;6244911;28;20056;-79
2022/04/29 09:47:32;;;;;;;10.77;5.03;;;;;;;;;;6227069;28;20017;-79
2022/04/29 09:50:49;;;;;;;7.40;3.70;;;;;;;;;;6244857;28;20496;-79
2022/04/29 09:54:06;;;;;;;9.93;5.05;;;;;;;;;;6226721;28;20108;-79
2022/04/29 09:57:06;;;;;;;6.00;2.83;;;;;;;;;;6243993;28;20025;-79
2022/04/29 10:00:07;;;;;;;6.27;2.53;;;;;;;;;;6227390;28;20071;-80
2022/04/29 10:03:09;;;;;;;3.47;2.40;;;;;;;;;;6244464;28;20590;-79
2022/04/29 10:06:11;;;;;;;7.78;3.03;;;;;;;;;;6244820;28;20017;-80
2022/04/29 10:09:11;;;;;;;5.40;2.90;;;;;;;;;;6244225;28;20772;-80
2022/04/29 10:12:13;;;;;;;4.40;2.20;;;;;;;;;;6242576;28;20021;-80
2022/04/29 10:15:16;;;;;;;;;;;;;;;;;;6230993;28;20028;-79
2022/04/29 10:21:38;;;;;;;4.47;2.33;;;;;;;;;;6243879;28;20108;-79
2022/04/29 10:24:38;;;;;;;5.97;2.17;;;;;;;;;;6244383;28;20029;-79
2022/04/29 10:27:39;;;;;;;5.10;2.10;;;;;;;;;;6244232;28;20104;-79
2022/04/29 10:30:40;;;;;;;7.28;2.30;;;;;;;;;;6232361;28;20021;-80
2022/04/29 10:33:41;;;;;;;3.63;2.47;;;;;;;;;;6242742;28;20460;-81
2022/04/29 10:36:45;;;;;;;3.97;2.37;;;;;;;;;;6241153;28;20045;-79
2022/04/29 10:40:05;;;;;;;3.10;1.67;;;;;;;;;;6237723;28;20025;-78
2022/04/29 10:43:09;;;;;;;6.75;2.17;;;;;;;;;;6226318;28;20009;-79
2022/04/29 10:46:10;;;;;;;5.90;2.42;;;;;;;;;;6220455;28;20026;-78
2022/04/29 10:49:20;;;;;;;6.87;2.30;;;;;;;;;;6233726;28;20040;-78
2022/04/29 10:52:27;;;;;;;8.18;2.67;;;;;;;;;;6243611;28;20017;-78
2022/04/29 10:55:27;;;;;;;6.25;2.33;;;;;;;;;;6243588;28;20048;-78
2022/04/29 10:58:28;;;;;;;6.60;2.70;;;;;;;;;;6227012;28;20492;-78
2022/04/29 11:01:31;;;;;;;4.53;2.10;;;;;;;;;;6245646;28;20507;-78
2022/04/29 11:04:31;;;;;;;5.47;2.35;;;;;;;;;;6242331;28;20021;-78
2022/04/29 11:07:38;;;;;;;7.27;2.57;;;;;;;;;;6235401;28;20056;-78
2022/04/29 11:11:05;;;;;;;7.88;2.25;;;;;;;;;;6224308;28;20029;-77
2022/04/29 11:14:05;;;;;;;5.07;1.70;;;;;;;;;;6240403;28;20042;-78
2022/04/29 11:17:10;;;;;;;3.33;2.37;;;;;;;;;;6226559;28;20049;-78
2022/04/29 11:20:24;;;;;;;6.57;2.10;;;;;;;;;;6225711;28;20028;-78
2022/04/29 11:26:47;;;;;;;5.65;2.08;;;;;;;;;;6243212;28;20519;-78
2022/04/29 11:29:48;;;;;;;8.70;3.20;;;;;;;;;;6225872;28;20094;-78
2022/04/29 11:32:48;;;;;;;7.00;3.43;;;;;;;;;;6243680;28;20029;-78
2022/04/29 11:35:52;;;;;;;4.03;2.60;;;;;;;;;;6243703;28;20396;-78
2022/04/29 11:38:52;;;;;;;5.47;2.30;;;;;;;;;;6223565;28;20053;-79
2022/04/29 11:41:59;;;;;;;4.10;2.57;;;;;;;;;;6223614;28;20469;-79
2022/04/29 11:45:06;;;;;;;7.38;2.38;;;;;;;;;;6224569;28;20128;-79
2022/04/29 11:48:07;;;;;;;6.18;2.42;;;;;;;;;;6218717;28;20026;-79
2022/04/29 11:51:13;;;;;;;5.57;2.58;;;;;;;;;;6221145;28;20096;-79
2022/04/29 11:54:13;;;;;;;5.38;2.08;;;;;;;;;;6221129;28;20109;-78
2022/04/29 11:57:14;;;;;;;3.67;1.80;;;;;;;;;;6243349;28;20022;-79
2022/04/29 12:00:25;;;;;;;4.63;2.73;;;;;;;;;;6243230;28;20036;-78
2022/04/29 12:03:26;;;;;;;8.20;3.67;;;;;;;;;;6223852;28;20116;-79
2022/04/29 12:06:26;;;;;;;5.97;2.63;;;;;;;;;;6234116;28;20025;-79
2022/04/29 12:09:31;;;;;;;6.97;2.60;;;;;;;;;;6226392;28;20048;-79
2022/04/29 12:12:31;;;;;;;8.32;3.42;;;;;;;;;;6242399;28;20047;-79
2022/04/29 12:15:33;;;;;;;2.73;2.10;;;;;;;;;;6241376;28;20017;-79
2022/04/29 12:18:52;;;;;;;6.95;2.58;;;;;;;;;;6244405;28;20036;-79
2022/04/29 12:21:56;;;;;;;5.10;2.40;;;;;;;;;;6250549;28;20029;-79
2022/04/29 12:24:57;;;;;;;4.05;2.35;;;;;;;;;;6259740;28;20134;-79
2022/04/29 12:28:11;;;;;;;4.70;1.90;;;;;;;;;;6242578;28;20886;-79
2022/04/29 12:38:03;;;;;;;6.15;2.60;;;;;;;;;;6233443;28;20139;-78
2022/04/29 12:41:23;;;;;;;4.93;1.90;;;;;;;;;;6229782;28;20021;-78
2022/04/29 12:47:49;;;;;;;4.32;2.20;;;;;;;;;;6228902;28;20468;-78
2022/04/29 12:50:49;;;;;;;3.67;2.00;;;;;;;;;;6234935;28;20038;-79
